Jump to content

diems

Members
  • Content Count

    248
  • Joined

  • Last visited

Community Reputation

9 Нейтральная

About diems

  • Rank
    Продвинутый
  • Birthday 01/03/1985

Contact Methods

  • Skype
    Tarakash1985

Дополнительная информация

  • Место в рейтинге
    2717
  • Конфигурация компьютера
    Mac book

Profile Information

  • Gender
    Male
  • Location
    UUEE
  • Interests
    avia///

Recent Profile Visitors

1883 profile views
  1. Аналогичная ситуация Реал метар UUDD 011600Z 27005MPS 250V310 9999 FEW041 M01/M07 Q0999 R88/190095 NOSIG Актив скай UUDD 171700Z 16003MPS 9999 SCT046CB 19/14 Q1018 R88/010095 TEMPO VRB15MPS 2000 TSRA
  2. Доброго дня! Предлагаю встретиться на спот в УУДД.
  3. Конечно можно но пока нет времени, Yukikaze Ден часто там и Лион кинг.
  4. Андрюх что ты со временем загнул совсем)))) -идти минут 40 до торца 14П, и часа полтора до торца 32Л- От поста мин 20 до 14 и с часок мы шли по сугробам до 32. Надо как нить выбрать денек и поехать,Ден тут обзавелся сканером еще)
  5. Всем привет!!!Да уж весь летний споттинг пропустил,прилетаю 17 августа в 12-00 дня,думаю мож и кто нить меня заспотит))) Рейс HY607 Бухара Москва.Всем до встречи думаю после 20 чисел рвануть в дмд на спотт.
  6. Доброго дня.ездил или поедет кто нить седня на спот? Есть небольшой заказик , супруга улетела S7 877 Мадрид(Барахас) 30 апр 10:55 30 апр 11:19 прилетает S7 878 Мадрид(Барахас) 30 апр 21:35 если вдруг кто то случайно окажецо там.спасибо. з.ы. фотки класс,еще не успел вернуццо с командировки,как приеду сразу поедем ужо на летний спот))))
  7. Всем привет,фотки класс!!!!да давненько я не был в тех краях.Вернусь в мае и думаю как раз начнем сезон споттинга и шашлычков.Кстати если успею к майским праздникам можно замутить шашлыки!!!
  8. Ден классные фотки,особенно отечественных бортов.+100
  9. Скоро и я вернусь,соберем бригаду и поедем)))!!!
  10. за туполя сотку баллов!!!!мало их осталось,помню с Деном Якиказе устроили на них охоту,но так и не застали трофея.
  11. Привет всем .Классные фотки,давно не был.думаю скоро снова начнем гонять по сугробам дмд.на счет кривизни рук там кто то отписал якиказе - Дену,лично видел его руки ровные.Думаю скрины айрон майдена как его там тут тоже не нужны.тем более отвечать также скрином.ну и если есть вопросы или предложения в личку,не будем засорять эфир.Всем привет еще раз.!!!!
  12. вроде как все прописал,ща полетал от 30 до 50,но нет трафика.да и бывает что нормально когда в порту например в EGLL,и тут взлетел облачность и пропадает фпс.погоже нужно менять видяшку.спасибо ща еще потестю
×
×
  • Create New...